Flight Information

DEPARTURE
SAN DIEGO, CA
Elevation:
427
Runways:
10L/28R - 4598x150 - ASPH-G
H1 - 48x48 - ASPH-G
5/23 - 3400x75 - ASPH-TRTD-E
10R/28L - 3401x60 - ASPH-G
Active PE Departure:
28R - 28L
Current PE ATIS:
L
Altimeter:
30.18
Remarks:
ATIS:
126.9 858-277-3075
Clearance Delivery:
123.725
Ground:
118.22
Tower:
119.2 125.7
DESTINATION
IMPERIAL BEACH, CA
Elevation:
23
TPA:
1023 (est.)
Runways:
8/26 - 2240x151 - CONC
9/27 - 4997x336 - PEM
Tower:
120.65


15 NM180° True-13° Var166° HDG

Flight Plan:
(click to file on line)

1. Type
2. Aircraft Identification
3. Aircraft Type / Special Equipment
4. True Airspeed
kts
5. Departure Airport
(ICAO code)
6. Arriving Airport
(ICAO code)
7. Cruising Altitude
ft
8. Alternate Airport
(ICAO code)
9. Route of Flight
10. Remarks


00:00:00 Departure ATIS: Destination ATIS:

Clearance Limit:
Route:
Altitude: Expect in minutes
Frequency:
Transponder: (7500 Hijack / 7600 Lost Comms / 7700 Emergency)


KMYF 282153Z 13006KT 10SM CLR 23/M09 A3017 RMK AO2 SLP213 T02331094
Time: 2022-01-28T21:53:00Z
1643407141
Winds: 130 @ 6 kts
Visibility: 10.0 sm
Clouds (AGL): CLR
Temperature: 23.3 C
Dew Point: -9.4 C
Pressure: 30.171259 in Hgbr

KNRS 282153Z AUTO 10015G20KT 10SM CLR 22/M13 A3017 RMK AO2 SLP215 T02171128
Time: 2022-01-28T21:53:00Z
1643407142
Winds: 100 @ 15 kts
Gusting:20 kts
Visibility: 10.0 sm
Clouds (AGL): CLR
Temperature: 21.7 C
Dew Point: -12.8 C
Pressure: 30.171259 in Hgbr


Notes:

Data extracted from FAA Digital Chart Supplement. Effective: 0901Z Thursday, DEC 2, 2021 to 0901Z Thursday, JAN 27, 2022
Current ATIS data is provided courtisy of PilotEdge.